createdAt,value
2019-02-24T00:00:39.625Z,45.25
2019-02-24T00:03:08.516Z,42.75
2019-02-24T00:05:37.378Z,44.20
2019-02-24T00:08:06.327Z,43.30
2019-02-24T00:10:35.220Z,45.20
2019-02-24T00:13:04.115Z,41.65
2019-02-24T00:15:33.006Z,39.60
2019-02-24T00:18:02.445Z,35.38
2019-02-24T00:20:31.353Z,38.80
2019-02-24T00:23:00.226Z,40.92
2019-02-24T00:25:29.137Z,41.63
2019-02-24T00:28:06.773Z,38.78
2019-02-24T00:30:28.615Z,38.17
2019-02-24T00:32:57.505Z,30.05
2019-02-24T00:35:26.413Z,39.80
2019-02-24T00:37:55.266Z,34.95
2019-02-24T00:40:24.120Z,30.45
2019-02-24T00:42:53.007Z,30.88
2019-02-24T00:45:21.878Z,31.90
2019-02-24T00:47:50.757Z,31.87
2019-02-24T00:50:19.634Z,31.45
2019-02-24T00:52:48.487Z,30.52
2019-02-24T00:55:17.368Z,27.20
2019-02-24T00:57:46.253Z,33.88
2019-02-24T01:00:15.189Z,46.53
2019-02-24T01:02:44.086Z,41.88
2019-02-24T01:05:12.943Z,36.77
2019-02-24T01:07:41.825Z,35.60
2019-02-24T01:10:11.087Z,41.45
2019-02-24T01:12:39.904Z,36.40
2019-02-24T01:15:10.442Z,34.08
2019-02-24T01:17:39.311Z,31.17
2019-02-24T01:20:09.509Z,34.27
2019-02-24T01:22:38.377Z,31.68
2019-02-24T01:25:07.666Z,30.50
2019-02-24T01:27:36.547Z,33.45
2019-02-24T01:30:07.657Z,36.73
2019-02-24T01:32:36.546Z,39.42
2019-02-24T01:35:07.060Z,54.58
2019-02-24T01:37:35.968Z,42.90
2019-02-24T01:40:06.719Z,37.70
2019-02-24T01:42:35.759Z,38.85
2019-02-24T01:45:05.854Z,34.40
2019-02-24T01:47:34.765Z,33.70
2019-02-24T01:50:04.114Z,31.97
2019-02-24T01:52:33.030Z,36.65
2019-02-24T01:55:01.923Z,32.67
2019-02-24T01:57:30.796Z,31.52
2019-02-24T01:59:59.680Z,27.17
2019-02-24T02:02:28.571Z,23.60
2019-02-24T02:04:58.561Z,25.80
2019-02-24T02:07:27.528Z,25.45
2019-02-24T02:09:56.408Z,25.00
2019-02-24T02:12:25.258Z,28.90
2019-02-24T02:14:54.162Z,30.37
2019-02-24T02:17:23.023Z,28.75
2019-02-24T02:19:51.918Z,28.20
2019-02-24T02:22:20.796Z,29.05
2019-02-24T02:24:49.662Z,26.68
2019-02-24T02:27:18.563Z,31.62
2019-02-24T02:29:47.428Z,32.15
2019-02-24T02:32:16.282Z,33.55
2019-02-24T02:34:45.188Z,28.52
2019-02-24T02:37:14.049Z,29.35
2019-02-24T02:39:42.938Z,33.23
2019-02-24T02:42:11.810Z,29.82
2019-02-24T02:44:40.700Z,31.65
2019-02-24T02:47:09.589Z,28.32
2019-02-24T02:49:38.482Z,32.63
2019-02-24T02:52:07.350Z,31.10
2019-02-24T02:54:36.261Z,28.62
2019-02-24T02:57:05.113Z,26.35
2019-02-24T02:59:33.982Z,31.70
2019-02-24T03:02:04.501Z,32.70
2019-02-24T03:04:33.385Z,27.93
2019-02-24T03:07:09.570Z,29.23
2019-02-24T03:09:38.457Z,32.35
2019-02-24T03:12:07.338Z,27.40
2019-02-24T03:14:36.200Z,32.83
2019-02-24T03:17:05.105Z,30.85
2019-02-24T03:19:33.996Z,27.02
2019-02-24T03:22:02.853Z,28.65
2019-02-24T03:24:31.754Z,26.17
2019-02-24T03:27:00.622Z,25.12
2019-02-24T03:29:29.507Z,27.77
2019-02-24T03:31:58.390Z,27.30
2019-02-24T03:34:27.300Z,27.67
2019-02-24T03:36:56.186Z,27.27
2019-02-24T03:39:25.063Z,27.20
2019-02-24T03:41:53.946Z,33.00
2019-02-24T03:44:22.811Z,23.75
2019-02-24T03:46:51.734Z,24.05
2019-02-24T03:49:20.641Z,29.80
2019-02-24T03:51:49.539Z,22.65
2019-02-24T03:54:18.430Z,24.63
2019-02-24T03:56:47.295Z,19.20
2019-02-24T03:59:16.210Z,29.00
2019-02-24T04:01:45.075Z,23.87
2019-02-24T04:04:13.943Z,24.55
2019-02-24T04:06:44.361Z,21.12
2019-02-24T04:09:13.237Z,26.52
2019-02-24T04:11:42.176Z,21.48
2019-02-24T04:14:11.051Z,16.17
2019-02-24T04:16:39.931Z,23.95
2019-02-24T04:19:08.813Z,23.50
2019-02-24T04:21:37.706Z,19.80
2019-02-24T04:24:06.570Z,21.77
2019-02-24T04:26:35.450Z,16.67
2019-02-24T04:29:04.429Z,19.98
2019-02-24T04:31:33.331Z,23.92
2019-02-24T04:34:02.258Z,20.50
2019-02-24T04:36:31.182Z,19.20
2019-02-24T04:39:00.082Z,18.85
2019-02-24T04:41:28.949Z,21.17
2019-02-24T04:43:57.824Z,18.27
2019-02-24T04:46:26.720Z,17.90
2019-02-24T04:48:55.590Z,20.30
2019-02-24T04:51:24.474Z,20.37
2019-02-24T04:53:53.369Z,28.10
2019-02-24T04:56:22.266Z,20.35
2019-02-24T04:58:51.131Z,16.55
2019-02-24T05:01:20.027Z,19.00
2019-02-24T05:03:48.893Z,16.50
2019-02-24T05:06:17.800Z,23.40
2019-02-24T05:08:46.694Z,22.73
2019-02-24T05:11:15.539Z,23.22
2019-02-24T05:13:44.426Z,19.80
2019-02-24T05:16:13.326Z,24.35
2019-02-24T05:18:42.205Z,20.08
2019-02-24T05:21:11.058Z,20.12
2019-02-24T05:23:39.941Z,16.97
2019-02-24T05:26:10.417Z,25.30
2019-02-24T05:28:39.277Z,24.12
2019-02-24T05:31:08.159Z,21.85
2019-02-24T05:33:37.050Z,24.65
2019-02-24T05:36:05.935Z,23.60
2019-02-24T05:38:34.809Z,18.02
2019-02-24T05:41:03.699Z,20.62
2019-02-24T05:43:32.624Z,21.33
2019-02-24T05:46:01.532Z,20.68
2019-02-24T05:48:30.397Z,20.48
2019-02-24T05:50:59.296Z,20.15
2019-02-24T05:53:28.217Z,18.98
2019-02-24T05:55:57.089Z,21.33
2019-02-24T05:58:25.962Z,19.35
2019-02-24T06:00:54.922Z,20.08
2019-02-24T06:03:23.759Z,17.82
2019-02-24T06:05:52.639Z,23.60
2019-02-24T06:08:21.537Z,20.52
2019-02-24T06:10:50.443Z,21.42
2019-02-24T06:13:19.316Z,20.75
2019-02-24T06:15:48.215Z,22.52
2019-02-24T06:18:17.105Z,18.30
2019-02-24T06:20:45.978Z,21.65
2019-02-24T06:23:14.854Z,23.85
2019-02-24T06:25:43.778Z,20.57
2019-02-24T06:28:12.657Z,20.23
2019-02-24T06:30:41.513Z,18.82
2019-02-24T06:33:10.387Z,22.60
2019-02-24T06:35:39.296Z,22.20
2019-02-24T06:38:08.186Z,23.45
2019-02-24T06:40:37.049Z,21.00
2019-02-24T06:43:05.957Z,17.25
2019-02-24T06:45:34.845Z,18.98
2019-02-24T06:48:03.715Z,20.37
2019-02-24T06:50:35.562Z,19.67
2019-02-24T06:53:04.703Z,22.58
2019-02-24T06:55:33.591Z,19.40
2019-02-24T06:58:02.467Z,22.70
2019-02-24T07:00:31.363Z,17.32
2019-02-24T07:03:00.248Z,20.27
2019-02-24T07:05:29.123Z,23.25
2019-02-24T07:07:58.000Z,19.57
2019-02-24T07:10:26.864Z,17.82
2019-02-24T07:12:55.753Z,23.75
2019-02-24T07:15:24.645Z,27.95
2019-02-24T07:17:53.532Z,17.67
2019-02-24T07:20:22.388Z,21.27
2019-02-24T07:22:51.294Z,22.82
2019-02-24T07:25:20.191Z,19.23
2019-02-24T07:27:49.061Z,18.85
2019-02-24T07:30:23.603Z,23.00
2019-02-24T07:32:48.532Z,19.55
2019-02-24T07:35:17.394Z,20.85
2019-02-24T07:37:46.277Z,20.43
2019-02-24T07:40:15.141Z,18.73
2019-02-24T07:42:44.061Z,16.07
2019-02-24T07:45:12.949Z,20.57
2019-02-24T07:47:41.811Z,22.15
2019-02-24T07:50:10.736Z,22.58
2019-02-24T07:52:39.625Z,18.02
2019-02-24T07:55:08.483Z,17.62
2019-02-24T07:57:37.364Z,17.80
2019-02-24T08:00:09.245Z,18.10
2019-02-24T08:02:38.109Z,18.07
2019-02-24T08:05:08.035Z,19.05
2019-02-24T08:07:36.905Z,16.73
2019-02-24T08:10:07.823Z,18.92
2019-02-24T08:12:36.711Z,23.10
2019-02-24T08:15:07.837Z,23.47
2019-02-24T08:17:36.699Z,23.70
2019-02-24T08:20:08.374Z,24.27
2019-02-24T08:22:37.252Z,19.65
2019-02-24T08:25:07.600Z,27.27
2019-02-24T08:27:36.470Z,25.37
2019-02-24T08:30:08.407Z,24.00
2019-02-24T08:32:37.297Z,20.60
2019-02-24T08:35:07.531Z,20.30
2019-02-24T08:37:36.404Z,21.33
2019-02-24T08:40:07.317Z,23.18
2019-02-24T08:42:36.183Z,21.93
2019-02-24T08:45:08.226Z,24.75
2019-02-24T08:47:37.081Z,17.42
2019-02-24T08:50:08.900Z,20.20
2019-02-24T08:52:37.791Z,20.43
2019-02-24T08:55:07.997Z,19.90
2019-02-24T08:57:36.888Z,18.45
2019-02-24T09:00:15.957Z,18.48
2019-02-24T09:02:44.861Z,22.15
2019-02-24T09:05:13.759Z,17.92
2019-02-24T09:07:42.726Z,21.07
2019-02-24T09:10:11.599Z,17.48
2019-02-24T09:12:40.500Z,20.00
2019-02-24T09:15:15.808Z,18.95
2019-02-24T09:17:44.266Z,18.45
2019-02-24T09:20:14.064Z,18.52
2019-02-24T09:22:43.013Z,20.92
2019-02-24T09:25:11.897Z,21.23
2019-02-24T09:27:40.774Z,20.72
2019-02-24T09:30:12.062Z,18.73
2019-02-24T09:32:40.988Z,22.45
2019-02-24T09:35:10.359Z,22.55
2019-02-24T09:37:39.235Z,18.40
2019-02-24T09:40:10.885Z,19.12
2019-02-24T09:42:39.755Z,16.02
2019-02-24T09:45:10.679Z,13.65
2019-02-24T09:47:46.445Z,17.25
2019-02-24T09:50:10.813Z,16.73
2019-02-24T09:52:39.692Z,18.32
2019-02-24T09:55:09.709Z,16.45
2019-02-24T09:57:38.569Z,17.20
2019-02-24T10:00:12.825Z,18.23
2019-02-24T10:02:41.758Z,16.37
2019-02-24T10:05:10.638Z,18.25
2019-02-24T10:07:39.507Z,17.80
2019-02-24T10:10:10.931Z,15.15
2019-02-24T10:12:39.788Z,18.15
2019-02-24T10:15:14.042Z,20.35
2019-02-24T10:17:42.922Z,15.15
2019-02-24T10:20:12.917Z,17.07
2019-02-24T10:22:41.772Z,17.48
2019-02-24T10:25:10.835Z,17.17
2019-02-24T10:27:39.712Z,17.70
2019-02-24T10:30:11.614Z,22.30
2019-02-24T10:32:40.493Z,17.23
2019-02-24T10:35:09.445Z,19.52
2019-02-24T10:37:38.317Z,18.10
2019-02-24T10:40:14.665Z,15.40
2019-02-24T10:42:43.549Z,17.98
2019-02-24T10:45:14.953Z,17.92
2019-02-24T10:47:43.851Z,19.60
2019-02-24T10:50:14.330Z,15.08
2019-02-24T10:52:43.257Z,11.68
2019-02-24T10:55:12.386Z,13.70
2019-02-24T10:57:41.271Z,15.70
2019-02-24T11:00:15.303Z,15.28
2019-02-24T11:02:44.138Z,13.72
2019-02-24T11:05:13.796Z,13.05
2019-02-24T11:07:42.660Z,13.45
2019-02-24T11:10:11.703Z,14.45
2019-02-24T11:12:40.583Z,16.25
2019-02-24T11:15:13.423Z,16.97
2019-02-24T11:17:42.290Z,12.73
2019-02-24T11:20:18.349Z,12.98
2019-02-24T11:22:47.324Z,13.22
2019-02-24T11:25:15.944Z,14.63
2019-02-24T11:27:44.804Z,14.80
2019-02-24T11:30:16.108Z,12.33
2019-02-24T11:32:44.671Z,12.97
2019-02-24T11:35:13.827Z,11.37
2019-02-24T11:37:42.420Z,10.53
2019-02-24T11:40:13.028Z,11.43
2019-02-24T11:42:41.620Z,13.33
2019-02-24T11:45:10.463Z,10.37
2019-02-24T11:47:39.047Z,10.00
2019-02-24T11:50:09.667Z,12.63
2019-02-24T11:52:38.301Z,8.33
2019-02-24T11:55:08.771Z,10.70
2019-02-24T11:57:37.337Z,11.97
2019-02-24T12:00:09.177Z,13.20
2019-02-24T12:02:37.823Z,10.10
2019-02-24T12:05:07.951Z,12.07
2019-02-24T12:07:36.554Z,11.30
2019-02-24T12:10:08.279Z,11.67
2019-02-24T12:12:36.866Z,10.77
2019-02-24T12:15:10.908Z,10.27
2019-02-24T12:17:39.475Z,12.77
2019-02-24T12:20:10.559Z,12.33
2019-02-24T12:22:39.145Z,11.63
2019-02-24T12:25:09.646Z,21.83
2019-02-24T12:27:38.409Z,11.57
2019-02-24T12:30:14.506Z,17.20
2019-02-24T12:32:43.068Z,17.33
2019-02-24T12:35:11.759Z,10.40
2019-02-24T12:37:40.344Z,9.53
2019-02-24T12:40:10.639Z,13.90
2019-02-24T12:42:39.215Z,10.80
2019-02-24T12:45:11.691Z,13.23
2019-02-24T12:47:40.256Z,11.87
2019-02-24T12:50:10.881Z,10.03
2019-02-24T12:52:39.452Z,8.93
2019-02-24T12:55:09.157Z,9.37
2019-02-24T12:57:37.806Z,12.03
2019-02-24T13:00:18.305Z,10.13
2019-02-24T13:02:46.877Z,11.33
2019-02-24T13:05:15.516Z,10.93
2019-02-24T13:07:44.118Z,12.53
2019-02-24T13:10:15.330Z,7.83
2019-02-24T13:12:43.891Z,7.87
2019-02-24T13:15:12.527Z,7.23
2019-02-24T13:17:41.105Z,9.03
2019-02-24T13:20:11.214Z,8.13
2019-02-24T13:22:40.142Z,10.97
2019-02-24T13:25:13.171Z,12.07
2019-02-24T13:27:41.725Z,15.23
2019-02-24T13:30:12.814Z,10.77
2019-02-24T13:32:43.329Z,11.47
2019-02-24T13:35:11.907Z,9.97
2019-02-24T13:37:40.485Z,11.57
2019-02-24T13:40:11.025Z,7.80
2019-02-24T13:42:39.593Z,9.27
2019-02-24T13:45:11.554Z,8.80
2019-02-24T13:47:40.133Z,9.17
2019-02-24T13:50:08.934Z,8.27
2019-02-24T13:52:37.546Z,10.07
2019-02-24T13:55:09.047Z,6.83
2019-02-24T13:57:37.614Z,4.23
2019-02-24T14:00:09.242Z,5.17
2019-02-24T14:02:37.842Z,4.53
2019-02-24T14:05:06.606Z,7.20
2019-02-24T14:07:35.163Z,8.37
2019-02-24T14:10:04.499Z,6.10
2019-02-24T14:12:33.083Z,5.63
2019-02-24T14:15:01.654Z,7.83
2019-02-24T14:17:30.210Z,7.10
2019-02-24T14:19:59.937Z,6.53
2019-02-24T14:22:28.645Z,8.17
2019-02-24T14:24:57.255Z,7.70
2019-02-24T14:27:25.859Z,5.10
2019-02-24T14:29:54.427Z,8.07
2019-02-24T14:32:23.041Z,8.80
2019-02-24T14:34:51.594Z,8.43
2019-02-24T14:37:20.159Z,5.70
2019-02-24T14:39:48.774Z,9.47
2019-02-24T14:42:17.383Z,8.30
2019-02-24T14:44:45.943Z,5.43
2019-02-24T14:47:14.517Z,9.60
2019-02-24T14:49:43.107Z,8.37
2019-02-24T14:52:11.669Z,7.67
2019-02-24T14:54:40.337Z,8.17
2019-02-24T14:57:08.923Z,7.43
2019-02-24T14:59:37.502Z,9.13
2019-02-24T15:02:15.416Z,5.70
2019-02-24T15:04:43.963Z,5.67
2019-02-24T15:07:12.564Z,7.03
2019-02-24T15:09:41.121Z,11.23
2019-02-24T15:12:09.716Z,11.87
2019-02-24T15:14:38.328Z,7.47
2019-02-24T15:17:06.905Z,7.50
2019-02-24T15:19:35.491Z,9.80
2019-02-24T15:22:04.055Z,8.10
2019-02-24T15:24:32.652Z,9.07
2019-02-24T15:27:01.229Z,7.60
2019-02-24T15:29:29.816Z,17.80
2019-02-24T15:31:58.384Z,11.77
2019-02-24T15:34:26.938Z,12.40
2019-02-24T15:36:55.543Z,11.97
2019-02-24T15:39:24.134Z,14.07
2019-02-24T15:41:52.718Z,10.27
2019-02-24T15:44:21.322Z,11.73
2019-02-24T15:46:50.029Z,13.53
2019-02-24T15:49:18.590Z,10.43
2019-02-24T15:51:47.185Z,17.97
2019-02-24T15:54:15.747Z,23.30
2019-02-24T15:56:44.331Z,8.40
2019-02-24T15:59:13.688Z,16.57
2019-02-24T16:01:42.276Z,7.20
2019-02-24T16:04:10.826Z,12.87
2019-02-24T16:06:39.438Z,8.07
2019-02-24T16:09:08.739Z,12.07
2019-02-24T16:11:37.292Z,8.63
2019-02-24T16:14:05.868Z,9.13
2019-02-24T16:16:34.431Z,8.90
2019-02-24T16:19:02.985Z,8.43
2019-02-24T16:21:31.569Z,6.27
2019-02-24T16:24:00.125Z,9.43
2019-02-24T16:26:28.674Z,7.77
2019-02-24T16:28:57.275Z,10.47
2019-02-24T16:31:25.823Z,6.87
2019-02-24T16:33:54.386Z,8.87
2019-02-24T16:36:22.970Z,8.63
2019-02-24T16:38:51.555Z,8.87
2019-02-24T16:41:20.142Z,8.07
2019-02-24T16:43:48.714Z,9.50
2019-02-24T16:46:17.314Z,9.23
2019-02-24T16:48:45.870Z,8.47
2019-02-24T16:51:14.461Z,10.33
2019-02-24T16:53:43.034Z,9.03
2019-02-24T16:56:11.638Z,9.13
2019-02-24T16:58:40.227Z,10.50
2019-02-24T17:01:08.803Z,11.13
2019-02-24T17:03:37.383Z,10.07
2019-02-24T17:06:05.941Z,9.60
2019-02-24T17:08:34.503Z,11.50
2019-02-24T17:11:07.475Z,13.00
2019-02-24T17:13:33.432Z,13.17
2019-02-24T17:16:02.001Z,11.93
2019-02-24T17:18:30.606Z,16.13
2019-02-24T17:20:59.162Z,17.13
2019-02-24T17:23:27.750Z,15.27
2019-02-24T17:25:56.343Z,18.07
2019-02-24T17:28:26.530Z,15.80
2019-02-24T17:30:56.263Z,21.00
2019-02-24T17:33:30.073Z,22.20
2019-02-24T17:35:55.138Z,20.77
2019-02-24T17:38:23.814Z,17.80
2019-02-24T17:40:52.415Z,19.37
2019-02-24T17:43:21.011Z,21.23
2019-02-24T17:45:49.678Z,19.10
2019-02-24T17:48:19.765Z,21.53
2019-02-24T17:50:48.483Z,29.50
2019-02-24T17:53:17.095Z,21.37
2019-02-24T17:55:45.682Z,23.27
2019-02-24T17:58:14.256Z,18.77
2019-02-24T18:00:44.482Z,28.97
2019-02-24T18:03:13.102Z,19.03
2019-02-24T18:05:41.736Z,25.33
2019-02-24T18:08:11.944Z,15.53
2019-02-24T18:10:40.526Z,15.53
2019-02-24T18:13:09.104Z,23.67
2019-02-24T18:15:37.750Z,17.50
2019-02-24T18:18:06.327Z,24.53
2019-02-24T18:20:34.907Z,25.07
2019-02-24T18:23:03.533Z,23.10
2019-02-24T18:25:32.128Z,24.17
2019-02-24T18:28:00.728Z,24.37
2019-02-24T18:30:30.303Z,23.53
2019-02-24T18:32:59.989Z,31.17
2019-02-24T18:35:28.553Z,30.13
2019-02-24T18:37:57.169Z,21.90
2019-02-24T18:40:25.709Z,25.23
2019-02-24T18:43:00.328Z,30.97
2019-02-24T18:45:24.990Z,24.70
2019-02-24T18:47:53.573Z,23.40
2019-02-24T18:50:22.185Z,27.43
2019-02-24T18:52:50.768Z,25.93
2019-02-24T18:55:19.396Z,26.87
2019-02-24T18:57:47.996Z,20.40
2019-02-24T19:00:23.643Z,22.40
2019-02-24T19:02:52.224Z,22.70
2019-02-24T19:05:20.833Z,24.83
2019-02-24T19:07:49.387Z,24.90
2019-02-24T19:10:22.468Z,24.60
2019-02-24T19:12:51.062Z,22.87
2019-02-24T19:15:22.726Z,20.47
2019-02-24T19:17:51.307Z,20.17
2019-02-24T19:20:23.561Z,20.90
2019-02-24T19:22:52.148Z,23.97
2019-02-24T19:25:20.745Z,24.77
2019-02-24T19:27:49.350Z,31.43
2019-02-24T19:30:19.886Z,26.57
2019-02-24T19:32:48.489Z,23.97
2019-02-24T19:35:18.221Z,21.17
2019-02-24T19:37:46.990Z,27.90
2019-02-24T19:40:22.345Z,25.40
2019-02-24T19:42:51.237Z,26.23
2019-02-24T19:45:24.599Z,28.33
2019-02-24T19:47:53.223Z,25.83
2019-02-24T19:50:21.809Z,24.17
2019-02-24T19:52:50.408Z,30.73
2019-02-24T19:55:19.350Z,31.85
2019-02-24T19:57:48.439Z,31.33
2019-02-24T20:00:22.417Z,26.57
2019-02-24T20:02:51.386Z,33.40
2019-02-24T20:05:20.742Z,27.90
2019-02-24T20:07:49.597Z,25.67
2019-02-24T20:10:25.977Z,25.72
2019-02-24T20:12:54.596Z,21.53
2019-02-24T20:15:23.494Z,25.90
2019-02-24T20:17:52.175Z,24.47
2019-02-24T20:20:21.803Z,22.53
2019-02-24T20:22:50.692Z,29.05
2019-02-24T20:25:21.899Z,23.70
2019-02-24T20:27:50.809Z,22.80
2019-02-24T20:30:25.007Z,25.88
2019-02-24T20:32:53.884Z,29.50
2019-02-24T20:35:24.266Z,27.27
2019-02-24T20:37:53.308Z,31.27
2019-02-24T20:40:22.239Z,27.98
2019-02-24T20:42:51.146Z,27.80
2019-02-24T20:45:21.191Z,27.37
2019-02-24T20:47:50.258Z,24.40
2019-02-24T20:50:21.608Z,23.55
2019-02-24T20:52:50.519Z,30.52
2019-02-24T20:55:19.438Z,20.95
2019-02-24T20:57:48.386Z,26.17
2019-02-24T21:00:20.569Z,30.20
2019-02-24T21:02:49.453Z,20.43
2019-02-24T21:05:18.338Z,18.02
2019-02-24T21:07:48.493Z,19.65
2019-02-24T21:10:17.363Z,26.52
2019-02-24T21:12:47.948Z,23.27
2019-02-24T21:15:18.000Z,24.90
2019-02-24T21:17:46.915Z,22.82
2019-02-24T21:20:24.444Z,23.05
2019-02-24T21:22:53.367Z,29.80
2019-02-24T21:25:22.259Z,30.23
2019-02-24T21:27:51.013Z,30.50
2019-02-24T21:30:20.533Z,21.55
2019-02-24T21:32:49.474Z,23.83
2019-02-24T21:35:18.383Z,24.82
2019-02-24T21:37:47.297Z,20.82
2019-02-24T21:40:20.040Z,26.07
2019-02-24T21:42:48.894Z,25.92
2019-02-24T21:45:20.531Z,25.23
2019-02-24T21:47:49.421Z,25.15
2019-02-24T21:50:18.333Z,26.25
2019-02-24T21:52:47.195Z,21.65
2019-02-24T21:55:16.096Z,23.62
2019-02-24T21:57:44.986Z,26.77
2019-02-24T22:00:19.456Z,33.23
2019-02-24T22:02:48.379Z,26.45
2019-02-24T22:05:17.256Z,24.82
2019-02-24T22:07:46.145Z,27.27
2019-02-24T22:10:16.465Z,24.05
2019-02-24T22:12:45.394Z,34.60
2019-02-24T22:15:25.447Z,26.60
2019-02-24T22:17:54.511Z,24.52
2019-02-24T22:20:23.409Z,29.98
2019-02-24T22:22:52.290Z,26.10
2019-02-24T22:25:21.372Z,25.72
2019-02-24T22:27:50.247Z,27.02
2019-02-24T22:30:23.229Z,25.80
2019-02-24T22:32:52.126Z,19.87
2019-02-24T22:35:21.026Z,20.10
2019-02-24T22:37:49.886Z,22.75
2019-02-24T22:40:18.949Z,20.70
2019-02-24T22:42:47.818Z,23.50
2019-02-24T22:45:18.009Z,17.82
2019-02-24T22:47:47.240Z,22.50
2019-02-24T22:50:16.741Z,21.37
2019-02-24T22:52:46.776Z,23.27
2019-02-24T22:55:18.727Z,23.00
2019-02-24T22:57:47.790Z,22.00
2019-02-24T23:00:26.878Z,17.50
2019-02-24T23:02:55.911Z,19.07
2019-02-24T23:05:24.760Z,24.20
2019-02-24T23:07:53.649Z,24.12
2019-02-24T23:10:22.500Z,18.70
2019-02-24T23:12:51.400Z,22.98
2019-02-24T23:15:20.284Z,23.07
2019-02-24T23:17:49.228Z,22.37
2019-02-24T23:20:18.108Z,19.52
2019-02-24T23:22:46.968Z,22.73
2019-02-24T23:25:15.848Z,24.27
2019-02-24T23:27:44.747Z,20.60
2019-02-24T23:30:13.618Z,20.90
2019-02-24T23:32:42.490Z,27.80
2019-02-24T23:35:11.373Z,23.35
2019-02-24T23:37:40.227Z,24.43
2019-02-24T23:40:09.678Z,24.72
2019-02-24T23:42:38.553Z,21.73
2019-02-24T23:45:10.858Z,24.75
2019-02-24T23:47:40.005Z,20.23
2019-02-24T23:50:11.099Z,23.10
2019-02-24T23:52:40.030Z,19.57
2019-02-24T23:55:10.355Z,22.87
2019-02-24T23:57:39.239Z,18.62
